sensor_id;sensor_type;location;lat;lon;timestamp;pressure;altitude;pressure_sealevel;temperature;humidity
68628;BME280;55611;48.602;9.490;2023-04-25T00:01:10;96300;;;11.6;58
68628;BME280;55611;48.602;9.490;2023-04-25T00:03:41;96300;;;11.7;58
68628;BME280;55611;48.602;9.490;2023-04-25T00:06:11;96300;;;11.8;58
68628;BME280;55611;48.602;9.490;2023-04-25T00:08:42;96300;;;11.9;58
68628;BME280;55611;48.602;9.490;2023-04-25T00:11:12;96290;;;12;58
68628;BME280;55611;48.602;9.490;2023-04-25T00:13:43;96290;;;12.1;58
68628;BME280;55611;48.602;9.490;2023-04-25T00:16:13;96290;;;12.1;58
68628;BME280;55611;48.602;9.490;2023-04-25T00:18:44;96290;;;12.1;58
68628;BME280;55611;48.602;9.490;2023-04-25T00:21:14;96290;;;12.1;58
68628;BME280;55611;48.602;9.490;2023-04-25T00:23:45;96290;;;12.1;58
68628;BME280;55611;48.602;9.490;2023-04-25T00:26:15;96290;;;12;58
68628;BME280;55611;48.602;9.490;2023-04-25T00:28:46;96280;;;12;58
68628;BME280;55611;48.602;9.490;2023-04-25T00:31:16;96280;;;12;58.5
68628;BME280;55611;48.602;9.490;2023-04-25T00:33:47;96290;;;12;58
68628;BME280;55611;48.602;9.490;2023-04-25T00:36:17;96290;;;12;58
68628;BME280;55611;48.602;9.490;2023-04-25T00:38:48;96290;;;12;58
68628;BME280;55611;48.602;9.490;2023-04-25T00:41:18;96290;;;12;58
68628;BME280;55611;48.602;9.490;2023-04-25T00:43:49;96290;;;12;58
68628;BME280;55611;48.602;9.490;2023-04-25T00:46:19;96280;;;12.1;58
68628;BME280;55611;48.602;9.490;2023-04-25T00:48:50;96290;;;12.1;58
68628;BME280;55611;48.602;9.490;2023-04-25T00:51:21;96280;;;12.2;58
68628;BME280;55611;48.602;9.490;2023-04-25T00:53:51;96280;;;12.2;58
68628;BME280;55611;48.602;9.490;2023-04-25T00:56:21;96280;;;12.1;58
68628;BME280;55611;48.602;9.490;2023-04-25T00:58:53;96270;;;12.1;58
68628;BME280;55611;48.602;9.490;2023-04-25T01:01:23;96270;;;12.1;58
68628;BME280;55611;48.602;9.490;2023-04-25T01:03:53;96260;;;12.1;58
68628;BME280;55611;48.602;9.490;2023-04-25T01:06:24;96260;;;12;58
68628;BME280;55611;48.602;9.490;2023-04-25T01:08:54;96270;;;12;58
68628;BME280;55611;48.602;9.490;2023-04-25T01:11:25;96260;;;11.9;58
68628;BME280;55611;48.602;9.490;2023-04-25T01:13:55;96260;;;11.9;58
68628;BME280;55611;48.602;9.490;2023-04-25T01:16:26;96260;;;11.9;58
68628;BME280;55611;48.602;9.490;2023-04-25T01:18:56;96260;;;11.9;58.5
68628;BME280;55611;48.602;9.490;2023-04-25T01:21:27;96260;;;11.9;58
68628;BME280;55611;48.602;9.490;2023-04-25T01:23:57;96250;;;11.9;58
68628;BME280;55611;48.602;9.490;2023-04-25T01:26:28;96250;;;11.9;58
68628;BME280;55611;48.602;9.490;2023-04-25T01:28:58;96250;;;11.8;58
68628;BME280;55611;48.602;9.490;2023-04-25T01:31:29;96240;;;11.8;58
68628;BME280;55611;48.602;9.490;2023-04-25T01:33:59;96240;;;11.8;58
68628;BME280;55611;48.602;9.490;2023-04-25T01:36:30;96240;;;11.9;58
68628;BME280;55611;48.602;9.490;2023-04-25T01:39:01;96240;;;11.8;58
68628;BME280;55611;48.602;9.490;2023-04-25T01:41:31;96240;;;11.9;58
68628;BME280;55611;48.602;9.490;2023-04-25T01:44:01;96230;;;11.9;58
68628;BME280;55611;48.602;9.490;2023-04-25T01:46:32;96240;;;11.9;58
68628;BME280;55611;48.602;9.490;2023-04-25T01:49:02;96230;;;11.9;58
68628;BME280;55611;48.602;9.490;2023-04-25T01:51:33;96240;;;11.8;58
68628;BME280;55611;48.602;9.490;2023-04-25T01:54:03;96240;;;11.8;58
68628;BME280;55611;48.602;9.490;2023-04-25T01:56:36;96240;;;11.8;58
68628;BME280;55611;48.602;9.490;2023-04-25T01:59:04;96250;;;11.7;58
68628;BME280;55611;48.602;9.490;2023-04-25T02:01:35;96240;;;11.7;58
68628;BME280;55611;48.602;9.490;2023-04-25T02:04:05;96240;;;11.7;58
68628;BME280;55611;48.602;9.490;2023-04-25T02:06:36;96240;;;11.7;58
68628;BME280;55611;48.602;9.490;2023-04-25T02:09:06;96250;;;11.6;58
68628;BME280;55611;48.602;9.490;2023-04-25T02:11:37;96240;;;11.7;58
68628;BME280;55611;48.602;9.490;2023-04-25T02:14:07;96240;;;11.7;58
68628;BME280;55611;48.602;9.490;2023-04-25T02:16:38;96240;;;11.7;58
68628;BME280;55611;48.602;9.490;2023-04-25T02:19:09;96240;;;11.7;58
68628;BME280;55611;48.602;9.490;2023-04-25T02:21:39;96240;;;11.6;58
68628;BME280;55611;48.602;9.490;2023-04-25T02:24:10;96240;;;11.7;58
68628;BME280;55611;48.602;9.490;2023-04-25T02:26:40;96240;;;11.6;58
68628;BME280;55611;48.602;9.490;2023-04-25T02:29:11;96240;;;11.4;58
68628;BME280;55611;48.602;9.490;2023-04-25T02:31:41;96240;;;11.4;58
68628;BME280;55611;48.602;9.490;2023-04-25T02:34:12;96240;;;11.3;58
68628;BME280;55611;48.602;9.490;2023-04-25T02:36:42;96230;;;11.4;58
68628;BME280;55611;48.602;9.490;2023-04-25T02:39:13;96230;;;11.3;58
68628;BME280;55611;48.602;9.490;2023-04-25T02:41:43;96230;;;11.4;58
68628;BME280;55611;48.602;9.490;2023-04-25T02:44:14;96240;;;11.4;58
68628;BME280;55611;48.602;9.490;2023-04-25T02:46:44;96240;;;11.3;58
68628;BME280;55611;48.602;9.490;2023-04-25T02:49:15;96240;;;11.1;58
68628;BME280;55611;48.602;9.490;2023-04-25T02:51:45;96240;;;11;58
68628;BME280;55611;48.602;9.490;2023-04-25T02:54:16;96220;;;11.1;58
68628;BME280;55611;48.602;9.490;2023-04-25T02:56:46;96220;;;11;58
68628;BME280;55611;48.602;9.490;2023-04-25T02:59:17;96210;;;11;58
68628;BME280;55611;48.602;9.490;2023-04-25T03:01:47;96210;;;11;58
68628;BME280;55611;48.602;9.490;2023-04-25T03:04:18;96200;;;11.1;58
68628;BME280;55611;48.602;9.490;2023-04-25T03:06:48;96200;;;11.1;58
68628;BME280;55611;48.602;9.490;2023-04-25T03:09:19;96210;;;11.1;58
68628;BME280;55611;48.602;9.490;2023-04-25T03:11:49;96210;;;11.1;58
68628;BME280;55611;48.602;9.490;2023-04-25T03:14:20;96210;;;11;57.5
68628;BME280;55611;48.602;9.490;2023-04-25T03:16:50;96210;;;11;58
68628;BME280;55611;48.602;9.490;2023-04-25T03:19:21;96210;;;11;58
68628;BME280;55611;48.602;9.490;2023-04-25T03:21:51;96220;;;11.1;58
68628;BME280;55611;48.602;9.490;2023-04-25T03:24:22;96210;;;11.1;58
68628;BME280;55611;48.602;9.490;2023-04-25T03:26:52;96210;;;11.1;58
68628;BME280;55611;48.602;9.490;2023-04-25T03:29:23;96210;;;11.1;58
68628;BME280;55611;48.602;9.490;2023-04-25T03:31:53;96200;;;11;58
68628;BME280;55611;48.602;9.490;2023-04-25T03:34:24;96200;;;11;58
68628;BME280;55611;48.602;9.490;2023-04-25T03:36:55;96200;;;11;58
68628;BME280;55611;48.602;9.490;2023-04-25T03:39:25;96200;;;11;58
68628;BME280;55611;48.602;9.490;2023-04-25T03:41:55;96200;;;11;58
68628;BME280;55611;48.602;9.490;2023-04-25T03:44:26;96200;;;11.1;58
68628;BME280;55611;48.602;9.490;2023-04-25T03:46:56;96200;;;11.1;58
68628;BME280;55611;48.602;9.490;2023-04-25T03:49:27;96200;;;11.1;58
68628;BME280;55611;48.602;9.490;2023-04-25T03:51:58;96200;;;11.2;58
68628;BME280;55611;48.602;9.490;2023-04-25T03:54:28;96200;;;11.2;58
68628;BME280;55611;48.602;9.490;2023-04-25T03:56:59;96200;;;11.2;58
68628;BME280;55611;48.602;9.490;2023-04-25T03:59:29;96210;;;11.2;58
68628;BME280;55611;48.602;9.490;2023-04-25T04:02:00;96200;;;11.2;58
68628;BME280;55611;48.602;9.490;2023-04-25T04:04:30;96200;;;11.2;58
68628;BME280;55611;48.602;9.490;2023-04-25T04:07:01;96200;;;11.2;58
68628;BME280;55611;48.602;9.490;2023-04-25T04:09:31;96200;;;11.2;58
68628;BME280;55611;48.602;9.490;2023-04-25T04:12:02;96200;;;11.2;58
68628;BME280;55611;48.602;9.490;2023-04-25T04:14:32;96200;;;11.2;58
68628;BME280;55611;48.602;9.490;2023-04-25T04:17:03;96200;;;11.2;58
68628;BME280;55611;48.602;9.490;2023-04-25T04:19:33;96200;;;11.2;58
68628;BME280;55611;48.602;9.490;2023-04-25T04:22:04;96210;;;11.2;58
68628;BME280;55611;48.602;9.490;2023-04-25T04:24:34;96200;;;11.2;58
68628;BME280;55611;48.602;9.490;2023-04-25T04:27:05;96200;;;11.3;58
68628;BME280;55611;48.602;9.490;2023-04-25T04:29:35;96210;;;11.2;58
68628;BME280;55611;48.602;9.490;2023-04-25T04:32:06;96210;;;11.3;58
68628;BME280;55611;48.602;9.490;2023-04-25T04:34:36;96210;;;11.3;58
68628;BME280;55611;48.602;9.490;2023-04-25T04:37:07;96210;;;11.4;58
68628;BME280;55611;48.602;9.490;2023-04-25T04:39:37;96210;;;11.4;58
68628;BME280;55611;48.602;9.490;2023-04-25T04:42:08;96210;;;11.4;58
68628;BME280;55611;48.602;9.490;2023-04-25T04:44:38;96210;;;11.5;58
68628;BME280;55611;48.602;9.490;2023-04-25T04:47:09;96210;;;11.5;58
68628;BME280;55611;48.602;9.490;2023-04-25T04:49:39;96210;;;11.5;58
68628;BME280;55611;48.602;9.490;2023-04-25T04:52:10;96210;;;11.5;58
68628;BME280;55611;48.602;9.490;2023-04-25T04:54:40;96220;;;11.5;58
68628;BME280;55611;48.602;9.490;2023-04-25T04:57:11;96220;;;11.5;58
68628;BME280;55611;48.602;9.490;2023-04-25T04:59:41;96220;;;11.5;58
68628;BME280;55611;48.602;9.490;2023-04-25T05:02:12;96220;;;11.6;58
68628;BME280;55611;48.602;9.490;2023-04-25T05:04:42;96220;;;11.6;58
68628;BME280;55611;48.602;9.490;2023-04-25T05:07:13;96210;;;11.5;58
68628;BME280;55611;48.602;9.490;2023-04-25T05:09:44;96220;;;11.4;58
68628;BME280;55611;48.602;9.490;2023-04-25T05:12:14;96220;;;11.5;58
68628;BME280;55611;48.602;9.490;2023-04-25T05:14:45;96220;;;11.6;58
68628;BME280;55611;48.602;9.490;2023-04-25T05:17:15;96220;;;11.6;58
68628;BME280;55611;48.602;9.490;2023-04-25T05:19:46;96230;;;11.5;58
68628;BME280;55611;48.602;9.490;2023-04-25T05:22:16;96230;;;11.5;58
68628;BME280;55611;48.602;9.490;2023-04-25T05:24:47;96220;;;11.5;58
68628;BME280;55611;48.602;9.490;2023-04-25T05:27:17;96230;;;11.5;58
68628;BME280;55611;48.602;9.490;2023-04-25T05:29:48;96230;;;11.4;58
68628;BME280;55611;48.602;9.490;2023-04-25T05:32:18;96220;;;11.4;58.5
68628;BME280;55611;48.602;9.490;2023-04-25T05:34:49;96230;;;11.5;58
68628;BME280;55611;48.602;9.490;2023-04-25T05:37:19;96230;;;11.5;58
68628;BME280;55611;48.602;9.490;2023-04-25T05:39:50;96230;;;11.5;58
68628;BME280;55611;48.602;9.490;2023-04-25T05:42:20;96240;;;11.5;58
68628;BME280;55611;48.602;9.490;2023-04-25T05:44:51;96240;;;11.5;58
68628;BME280;55611;48.602;9.490;2023-04-25T05:47:21;96240;;;11.6;58
68628;BME280;55611;48.602;9.490;2023-04-25T05:49:52;96240;;;11.6;58
68628;BME280;55611;48.602;9.490;2023-04-25T05:52:22;96230;;;11.7;58
68628;BME280;55611;48.602;9.490;2023-04-25T05:54:53;96240;;;11.7;58
68628;BME280;55611;48.602;9.490;2023-04-25T05:57:24;96230;;;11.7;58
68628;BME280;55611;48.602;9.490;2023-04-25T05:59:54;96230;;;11.7;58
68628;BME280;55611;48.602;9.490;2023-04-25T06:02:24;96230;;;11.6;58
68628;BME280;55611;48.602;9.490;2023-04-25T06:04:55;96230;;;11.7;58
68628;BME280;55611;48.602;9.490;2023-04-25T06:07:25;96230;;;11.8;58.5
68628;BME280;55611;48.602;9.490;2023-04-25T06:09:56;96230;;;11.9;58.5
68628;BME280;55611;48.602;9.490;2023-04-25T06:12:26;96240;;;11.8;58
68628;BME280;55611;48.602;9.490;2023-04-25T06:14:57;96250;;;11.7;58
68628;BME280;55611;48.602;9.490;2023-04-25T06:17:27;96250;;;11.6;58
68628;BME280;55611;48.602;9.490;2023-04-25T06:19:58;96240;;;11.5;58
68628;BME280;55611;48.602;9.490;2023-04-25T06:22:29;96240;;;11.5;58
68628;BME280;55611;48.602;9.490;2023-04-25T06:24:59;96240;;;11.5;58
68628;BME280;55611;48.602;9.490;2023-04-25T06:27:29;96230;;;11.6;58
68628;BME280;55611;48.602;9.490;2023-04-25T06:30:00;96230;;;11.6;58
68628;BME280;55611;48.602;9.490;2023-04-25T06:32:31;96230;;;11.7;58
68628;BME280;55611;48.602;9.490;2023-04-25T06:35:01;96220;;;11.8;58
68628;BME280;55611;48.602;9.490;2023-04-25T06:37:32;96230;;;12.1;58
68628;BME280;55611;48.602;9.490;2023-04-25T06:40:02;96220;;;12.3;58
68628;BME280;55611;48.602;9.490;2023-04-25T06:42:33;96220;;;12.4;58.5
68628;BME280;55611;48.602;9.490;2023-04-25T06:45:03;96220;;;12.4;58.5
68628;BME280;55611;48.602;9.490;2023-04-25T06:47:34;96230;;;12.5;58.5
68628;BME280;55611;48.602;9.490;2023-04-25T06:50:04;96230;;;12.4;58.5
68628;BME280;55611;48.602;9.490;2023-04-25T06:52:35;96230;;;12.4;58.5
68628;BME280;55611;48.602;9.490;2023-04-25T06:55:05;96230;;;12.4;58.5
68628;BME280;55611;48.602;9.490;2023-04-25T06:57:36;96230;;;12.5;58.5
68628;BME280;55611;48.602;9.490;2023-04-25T07:00:06;96240;;;12.5;58.5
68628;BME280;55611;48.602;9.490;2023-04-25T07:02:37;96230;;;12.6;58.5
68628;BME280;55611;48.602;9.490;2023-04-25T07:05:07;96230;;;12.6;58
68628;BME280;55611;48.602;9.490;2023-04-25T07:07:38;96230;;;12.5;58
68628;BME280;55611;48.602;9.490;2023-04-25T07:10:08;96230;;;12.3;58
68628;BME280;55611;48.602;9.490;2023-04-25T07:12:39;96240;;;12.2;58
68628;BME280;55611;48.602;9.490;2023-04-25T07:15:09;96240;;;12.1;58
68628;BME280;55611;48.602;9.490;2023-04-25T07:17:40;96240;;;12;58
68628;BME280;55611;48.602;9.490;2023-04-25T07:20:10;96240;;;11.9;58
68628;BME280;55611;48.602;9.490;2023-04-25T07:22:41;96250;;;11.8;58
68628;BME280;55611;48.602;9.490;2023-04-25T07:25:11;96240;;;11.7;58
68628;BME280;55611;48.602;9.490;2023-04-25T07:27:42;96240;;;11.7;58
68628;BME280;55611;48.602;9.490;2023-04-25T07:30:12;96240;;;11.7;58
68628;BME280;55611;48.602;9.490;2023-04-25T07:32:43;96250;;;11.6;58
68628;BME280;55611;48.602;9.490;2023-04-25T07:35:13;96250;;;11.6;58
68628;BME280;55611;48.602;9.490;2023-04-25T07:37:44;96250;;;11.6;58
68628;BME280;55611;48.602;9.490;2023-04-25T07:40:14;96250;;;11.6;58
68628;BME280;55611;48.602;9.490;2023-04-25T07:42:45;96250;;;11.6;58
68628;BME280;55611;48.602;9.490;2023-04-25T07:45:15;96250;;;11.6;58
68628;BME280;55611;48.602;9.490;2023-04-25T07:47:46;96250;;;11.6;58
68628;BME280;55611;48.602;9.490;2023-04-25T07:50:16;96260;;;11.5;58
68628;BME280;55611;48.602;9.490;2023-04-25T07:52:47;96260;;;11.5;58
68628;BME280;55611;48.602;9.490;2023-04-25T07:55:17;96260;;;11.5;57.5
68628;BME280;55611;48.602;9.490;2023-04-25T07:57:48;96260;;;11.4;57.5
68628;BME280;55611;48.602;9.490;2023-04-25T08:00:19;96270;;;11.3;57.5
68628;BME280;55611;48.602;9.490;2023-04-25T08:02:49;96270;;;11.3;57.5
68628;BME280;55611;48.602;9.490;2023-04-25T08:05:20;96280;;;11.2;58
68628;BME280;55611;48.602;9.490;2023-04-25T08:07:50;96280;;;10.9;58
68628;BME280;55611;48.602;9.490;2023-04-25T08:10:21;96280;;;10.7;58.5
68628;BME280;55611;48.602;9.490;2023-04-25T08:12:51;96290;;;10.6;58.5
68628;BME280;55611;48.602;9.490;2023-04-25T08:15:22;96300;;;10.5;58.5
68628;BME280;55611;48.602;9.490;2023-04-25T08:17:52;96300;;;10.6;58.5
68628;BME280;55611;48.602;9.490;2023-04-25T08:20:23;96300;;;10.6;59
68628;BME280;55611;48.602;9.490;2023-04-25T08:22:53;96310;;;10.5;59
68628;BME280;55611;48.602;9.490;2023-04-25T08:25:24;96310;;;10.5;59
68628;BME280;55611;48.602;9.490;2023-04-25T08:27:54;96310;;;10.5;59
68628;BME280;55611;48.602;9.490;2023-04-25T08:30:25;96320;;;10.4;59
68628;BME280;55611;48.602;9.490;2023-04-25T08:32:55;96330;;;10.3;59
68628;BME280;55611;48.602;9.490;2023-04-25T08:35:26;96330;;;10.2;59
68628;BME280;55611;48.602;9.490;2023-04-25T08:37:56;96340;;;10.2;59
68628;BME280;55611;48.602;9.490;2023-04-25T08:40:27;96340;;;10.1;59
68628;BME280;55611;48.602;9.490;2023-04-25T08:42:57;96350;;;10.1;59
68628;BME280;55611;48.602;9.490;2023-04-25T08:45:28;96350;;;10.1;59
68628;BME280;55611;48.602;9.490;2023-04-25T08:47:58;96360;;;10;59
68628;BME280;55611;48.602;9.490;2023-04-25T08:50:29;96360;;;9.9;59
68628;BME280;55611;48.602;9.490;2023-04-25T08:52:59;96370;;;9.7;59
68628;BME280;55611;48.602;9.490;2023-04-25T08:55:30;96370;;;9.5;59.5
68628;BME280;55611;48.602;9.490;2023-04-25T08:58:00;96370;;;9.3;59.5
68628;BME280;55611;48.602;9.490;2023-04-25T09:00:31;96370;;;9.2;59.5
68628;BME280;55611;48.602;9.490;2023-04-25T09:03:02;96380;;;9.2;59.5
68628;BME280;55611;48.602;9.490;2023-04-25T09:05:33;96370;;;9.3;59.5
68628;BME280;55611;48.602;9.490;2023-04-25T09:08:02;96380;;;9.3;59.5
68628;BME280;55611;48.602;9.490;2023-04-25T09:10:33;96380;;;9.3;59.5
68628;BME280;55611;48.602;9.490;2023-04-25T09:13:04;96380;;;9.3;59.5
68628;BME280;55611;48.602;9.490;2023-04-25T09:15:50;96380;;;9.4;59.5
68628;BME280;55611;48.602;9.490;2023-04-25T09:18:05;96390;;;9.4;59.5
68628;BME280;55611;48.602;9.490;2023-04-25T09:20:40;96390;;;9.5;59.5
68628;BME280;55611;48.602;9.490;2023-04-25T09:23:06;96390;;;9.5;59.5
68628;BME280;55611;48.602;9.490;2023-04-25T09:25:36;96390;;;9.6;59.5
68628;BME280;55611;48.602;9.490;2023-04-25T09:28:07;96390;;;9.6;59.5
68628;BME280;55611;48.602;9.490;2023-04-25T09:30:37;96400;;;9.6;59.5
68628;BME280;55611;48.602;9.490;2023-04-25T09:33:09;96400;;;9.6;59.5
68628;BME280;55611;48.602;9.490;2023-04-25T09:38:10;96410;;;9.7;59.5
68628;BME280;55611;48.602;9.490;2023-04-25T09:40:40;96410;;;9.7;59.5
68628;BME280;55611;48.602;9.490;2023-04-25T09:48:11;96420;;;9.9;60
68628;BME280;55611;48.602;9.490;2023-04-25T09:50:41;96420;;;10;59.5
68628;BME280;55611;48.602;9.490;2023-04-25T09:53:11;96420;;;10;59.5
68628;BME280;55611;48.602;9.490;2023-04-25T09:55:42;96430;;;10.1;60
68628;BME280;55611;48.602;9.490;2023-04-25T09:58:12;96430;;;10.1;60
68628;BME280;55611;48.602;9.490;2023-04-25T10:00:43;96430;;;10;60
68628;BME280;55611;48.602;9.490;2023-04-25T10:03:13;96430;;;9.8;60
68628;BME280;55611;48.602;9.490;2023-04-25T10:05:45;96440;;;9.7;60
68628;BME280;55611;48.602;9.490;2023-04-25T10:08:14;96440;;;9.7;60
68628;BME280;55611;48.602;9.490;2023-04-25T10:10:45;96440;;;9.8;60
68628;BME280;55611;48.602;9.490;2023-04-25T10:13:15;96440;;;10;60
68628;BME280;55611;48.602;9.490;2023-04-25T10:18:16;96440;;;9.9;60.5
68628;BME280;55611;48.602;9.490;2023-04-25T10:20:47;96440;;;9.9;60.5
68628;BME280;55611;48.602;9.490;2023-04-25T10:23:17;96450;;;10;60.5
68628;BME280;55611;48.602;9.490;2023-04-25T10:25:49;96450;;;9.9;60.5
68628;BME280;55611;48.602;9.490;2023-04-25T10:28:19;96450;;;9.9;61
68628;BME280;55611;48.602;9.490;2023-04-25T10:30:57;96450;;;10.1;61
68628;BME280;55611;48.602;9.490;2023-04-25T10:33:21;96460;;;10;61
68628;BME280;55611;48.602;9.490;2023-04-25T10:35:50;96460;;;10.1;61
68628;BME280;55611;48.602;9.490;2023-04-25T10:38:20;96460;;;10;61
68628;BME280;55611;48.602;9.490;2023-04-25T10:41:07;96460;;;9.9;61
68628;BME280;55611;48.602;9.490;2023-04-25T10:45:52;96470;;;9.7;60.5
68628;BME280;55611;48.602;9.490;2023-04-25T10:48:26;96470;;;9.6;60.5
68628;BME280;55611;48.602;9.490;2023-04-25T10:51:25;96470;;;9.5;60
68628;BME280;55611;48.602;9.490;2023-04-25T10:53:24;96470;;;9.4;60.5
68628;BME280;55611;48.602;9.490;2023-04-25T10:55:54;96480;;;9.3;60.5
68628;BME280;55611;48.602;9.490;2023-04-25T10:58:24;96490;;;9.2;60.5
68628;BME280;55611;48.602;9.490;2023-04-25T11:00:55;96490;;;9.1;60.5
68628;BME280;55611;48.602;9.490;2023-04-25T11:03:25;96490;;;9.2;60.5
68628;BME280;55611;48.602;9.490;2023-04-25T11:05:56;96500;;;9.1;60.5
68628;BME280;55611;48.602;9.490;2023-04-25T11:08:31;96500;;;9.1;60.5
68628;BME280;55611;48.602;9.490;2023-04-25T11:10:57;96500;;;9;60.5
68628;BME280;55611;48.602;9.490;2023-04-25T11:13:29;96500;;;9.1;60.5
68628;BME280;55611;48.602;9.490;2023-04-25T11:15:58;96510;;;9.1;60.5
68628;BME280;55611;48.602;9.490;2023-04-25T11:18:28;96510;;;9.1;60.5
68628;BME280;55611;48.602;9.490;2023-04-25T11:20:59;96510;;;9.2;60.5
68628;BME280;55611;48.602;9.490;2023-04-25T11:23:30;96520;;;9.3;60.5
68628;BME280;55611;48.602;9.490;2023-04-25T11:26:00;96520;;;9.1;60.5
68628;BME280;55611;48.602;9.490;2023-04-25T11:33:31;96530;;;8.7;60.5
68628;BME280;55611;48.602;9.490;2023-04-25T11:36:02;96530;;;8.7;60.5
68628;BME280;55611;48.602;9.490;2023-04-25T11:38:32;96540;;;8.7;60.5
68628;BME280;55611;48.602;9.490;2023-04-25T11:41:03;96540;;;8.8;60.5
68628;BME280;55611;48.602;9.490;2023-04-25T11:43:33;96540;;;8.9;60.5
68628;BME280;55611;48.602;9.490;2023-04-25T11:46:07;96540;;;9.1;60.5
68628;BME280;55611;48.602;9.490;2023-04-25T11:48:38;96540;;;9.1;60.5
68628;BME280;55611;48.602;9.490;2023-04-25T11:51:05;96550;;;9;60.5
68628;BME280;55611;48.602;9.490;2023-04-25T11:53:35;96550;;;9.1;60.5
68628;BME280;55611;48.602;9.490;2023-04-25T11:56:08;96550;;;9.2;60.5
68628;BME280;55611;48.602;9.490;2023-04-25T12:03:45;96550;;;9.7;60.5
68628;BME280;55611;48.602;9.490;2023-04-25T12:06:07;96550;;;9.8;60.5
68628;BME280;55611;48.602;9.490;2023-04-25T12:08:38;96560;;;9.9;60.5
68628;BME280;55611;48.602;9.490;2023-04-25T12:11:19;96560;;;9.9;60.5
68628;BME280;55611;48.602;9.490;2023-04-25T12:13:39;96560;;;9.9;60
68628;BME280;55611;48.602;9.490;2023-04-25T12:16:09;96570;;;9.5;60.5
68628;BME280;55611;48.602;9.490;2023-04-25T12:18:40;96570;;;9.4;60.5
68628;BME280;55611;48.602;9.490;2023-04-25T12:21:11;96570;;;9.6;60.5
68628;BME280;55611;48.602;9.490;2023-04-25T12:23:41;96570;;;9.5;60.5
68628;BME280;55611;48.602;9.490;2023-04-25T12:26:11;96570;;;9.3;60.5
68628;BME280;55611;48.602;9.490;2023-04-25T12:31:12;96580;;;9.6;60.5
68628;BME280;55611;48.602;9.490;2023-04-25T12:33:43;96580;;;9.6;60.5
68628;BME280;55611;48.602;9.490;2023-04-25T12:36:13;96580;;;9.7;60.5
68628;BME280;55611;48.602;9.490;2023-04-25T12:38:44;96580;;;10.1;60.5
68628;BME280;55611;48.602;9.490;2023-04-25T12:41:14;96580;;;10.3;60.5
68628;BME280;55611;48.602;9.490;2023-04-25T12:43:45;96580;;;10.3;60
68628;BME280;55611;48.602;9.490;2023-04-25T12:46:15;96590;;;10.4;60
68628;BME280;55611;48.602;9.490;2023-04-25T12:48:46;96590;;;10.5;60
68628;BME280;55611;48.602;9.490;2023-04-25T12:51:16;96590;;;10.7;60
68628;BME280;55611;48.602;9.490;2023-04-25T12:53:47;96590;;;10.8;60
68628;BME280;55611;48.602;9.490;2023-04-25T12:56:18;96600;;;10.8;60
68628;BME280;55611;48.602;9.490;2023-04-25T12:58:48;96600;;;10.8;60
68628;BME280;55611;48.602;9.490;2023-04-25T13:01:19;96600;;;10.8;60
68628;BME280;55611;48.602;9.490;2023-04-25T13:08:50;96600;;;11.3;60
68628;BME280;55611;48.602;9.490;2023-04-25T13:16:21;96600;;;11.6;60.5
68628;BME280;55611;48.602;9.490;2023-04-25T13:18:51;96610;;;11.6;60
68628;BME280;55611;48.602;9.490;2023-04-25T13:21:22;96600;;;11.7;60
68628;BME280;55611;48.602;9.490;2023-04-25T13:23:52;96600;;;11.8;60
68628;BME280;55611;48.602;9.490;2023-04-25T13:28:53;96600;;;11.6;60
68628;BME280;55611;48.602;9.490;2023-04-25T13:31:24;96600;;;11.6;60
68628;BME280;55611;48.602;9.490;2023-04-25T13:33:54;96600;;;11.6;60
68628;BME280;55611;48.602;9.490;2023-04-25T13:36:25;96590;;;11.7;60
68628;BME280;55611;48.602;9.490;2023-04-25T13:38:55;96600;;;11.8;60
68628;BME280;55611;48.602;9.490;2023-04-25T13:41:26;96600;;;11.8;60
68628;BME280;55611;48.602;9.490;2023-04-25T13:43:56;96600;;;11.8;60
68628;BME280;55611;48.602;9.490;2023-04-25T13:46:27;96600;;;11.9;60
68628;BME280;55611;48.602;9.490;2023-04-25T13:48:57;96600;;;12.1;60
68628;BME280;55611;48.602;9.490;2023-04-25T13:51:28;96600;;;12.2;60
68628;BME280;55611;48.602;9.490;2023-04-25T13:53:58;96600;;;12;60
68628;BME280;55611;48.602;9.490;2023-04-25T13:56:29;96600;;;12.1;60
68628;BME280;55611;48.602;9.490;2023-04-25T13:58:59;96600;;;12.2;60
68628;BME280;55611;48.602;9.490;2023-04-25T14:01:30;96600;;;12.3;60
68628;BME280;55611;48.602;9.490;2023-04-25T14:04:01;96600;;;12.3;60
68628;BME280;55611;48.602;9.490;2023-04-25T14:09:01;96600;;;12.5;60
68628;BME280;55611;48.602;9.490;2023-04-25T14:11:32;96590;;;12.6;60
68628;BME280;55611;48.602;9.490;2023-04-25T14:14:02;96590;;;12.8;60
68628;BME280;55611;48.602;9.490;2023-04-25T14:16:33;96590;;;12.9;60
68628;BME280;55611;48.602;9.490;2023-04-25T14:19:03;96590;;;13.2;60
68628;BME280;55611;48.602;9.490;2023-04-25T14:21:34;96600;;;13.4;60
68628;BME280;55611;48.602;9.490;2023-04-25T14:24:04;96600;;;13.4;60.5
68628;BME280;55611;48.602;9.490;2023-04-25T14:26:35;96600;;;13.1;60.5
68628;BME280;55611;48.602;9.490;2023-04-25T14:29:06;96600;;;13;60.5
68628;BME280;55611;48.602;9.490;2023-04-25T14:31:36;96600;;;13.1;60.5
68628;BME280;55611;48.602;9.490;2023-04-25T14:34:06;96600;;;13.1;60.5
68628;BME280;55611;48.602;9.490;2023-04-25T14:36:37;96610;;;13.1;60.5
68628;BME280;55611;48.602;9.490;2023-04-25T14:39:07;96600;;;13.2;60
68628;BME280;55611;48.602;9.490;2023-04-25T14:41:38;96600;;;13.3;60
68628;BME280;55611;48.602;9.490;2023-04-25T14:44:08;96610;;;13.3;60
68628;BME280;55611;48.602;9.490;2023-04-25T14:46:39;96600;;;13.3;60
68628;BME280;55611;48.602;9.490;2023-04-25T14:49:09;96600;;;13.5;60
68628;BME280;55611;48.602;9.490;2023-04-25T14:51:40;96600;;;13.6;60
68628;BME280;55611;48.602;9.490;2023-04-25T14:54:10;96610;;;13.5;60
68628;BME280;55611;48.602;9.490;2023-04-25T14:56:41;96610;;;13.4;60
68628;BME280;55611;48.602;9.490;2023-04-25T14:59:12;96610;;;13.5;60
68628;BME280;55611;48.602;9.490;2023-04-25T15:01:42;96610;;;13.5;60
68628;BME280;55611;48.602;9.490;2023-04-25T15:04:12;96620;;;13.4;60
68628;BME280;55611;48.602;9.490;2023-04-25T15:06:43;96620;;;13.3;60
68628;BME280;55611;48.602;9.490;2023-04-25T15:09:13;96620;;;13.2;60
68628;BME280;55611;48.602;9.490;2023-04-25T15:11:44;96620;;;13.1;60
68628;BME280;55611;48.602;9.490;2023-04-25T15:14:15;96620;;;13.1;60
68628;BME280;55611;48.602;9.490;2023-04-25T15:16:45;96620;;;13.2;60